sensor_id;sensor_type;location;lat;lon;timestamp;P1;durP1;ratioP1;P2;durP2;ratioP2
66402;SDS011;53212;52.112;5.144;2023-04-27T00:02:08;5.10;;;4.10;;
66402;SDS011;53212;52.112;5.144;2023-04-27T00:04:35;5.50;;;4.40;;
66402;SDS011;53212;52.112;5.144;2023-04-27T00:07:01;6.20;;;4.40;;
66402;SDS011;53212;52.112;5.144;2023-04-27T00:09:27;5.50;;;4.80;;
66402;SDS011;53212;52.112;5.144;2023-04-27T00:11:53;7.20;;;4.80;;
66402;SDS011;53212;52.112;5.144;2023-04-27T00:14:18;8.10;;;6.10;;
66402;SDS011;53212;52.112;5.144;2023-04-27T00:16:45;7.30;;;5.60;;
66402;SDS011;53212;52.112;5.144;2023-04-27T00:19:11;7.80;;;5.20;;
66402;SDS011;53212;52.112;5.144;2023-04-27T00:21:37;7.40;;;6.20;;
66402;SDS011;53212;52.112;5.144;2023-04-27T00:24:03;6.10;;;5.50;;
66402;SDS011;53212;52.112;5.144;2023-04-27T00:26:29;8.20;;;5.60;;
66402;SDS011;53212;52.112;5.144;2023-04-27T00:28:55;8.10;;;5.50;;
66402;SDS011;53212;52.112;5.144;2023-04-27T00:31:21;6.50;;;5.20;;
66402;SDS011;53212;52.112;5.144;2023-04-27T00:33:46;9.10;;;6.70;;
66402;SDS011;53212;52.112;5.144;2023-04-27T00:36:12;8.00;;;6.20;;
66402;SDS011;53212;52.112;5.144;2023-04-27T00:38:37;8.50;;;6.30;;
66402;SDS011;53212;52.112;5.144;2023-04-27T00:41:04;9.60;;;6.50;;
66402;SDS011;53212;52.112;5.144;2023-04-27T00:43:31;8.80;;;6.30;;
66402;SDS011;53212;52.112;5.144;2023-04-27T00:45:57;8.10;;;6.40;;
66402;SDS011;53212;52.112;5.144;2023-04-27T00:48:24;8.40;;;6.60;;
66402;SDS011;53212;52.112;5.144;2023-04-27T00:50:50;10.80;;;6.30;;
66402;SDS011;53212;52.112;5.144;2023-04-27T00:53:16;7.20;;;6.00;;
66402;SDS011;53212;52.112;5.144;2023-04-27T00:55:42;9.10;;;6.90;;
66402;SDS011;53212;52.112;5.144;2023-04-27T00:58:08;8.10;;;7.30;;
66402;SDS011;53212;52.112;5.144;2023-04-27T01:00:36;10.20;;;7.10;;
66402;SDS011;53212;52.112;5.144;2023-04-27T01:03:04;8.10;;;7.20;;
66402;SDS011;53212;52.112;5.144;2023-04-27T01:05:31;8.80;;;6.80;;
66402;SDS011;53212;52.112;5.144;2023-04-27T01:07:56;7.50;;;6.80;;
66402;SDS011;53212;52.112;5.144;2023-04-27T01:10:21;10.60;;;7.70;;
66402;SDS011;53212;52.112;5.144;2023-04-27T01:12:47;8.50;;;7.00;;
66402;SDS011;53212;52.112;5.144;2023-04-27T01:15:12;8.40;;;7.00;;
66402;SDS011;53212;52.112;5.144;2023-04-27T01:17:38;9.30;;;7.30;;
66402;SDS011;53212;52.112;5.144;2023-04-27T01:20:04;13.40;;;7.00;;
66402;SDS011;53212;52.112;5.144;2023-04-27T01:22:31;11.30;;;7.70;;
66402;SDS011;53212;52.112;5.144;2023-04-27T01:24:57;9.50;;;7.20;;
66402;SDS011;53212;52.112;5.144;2023-04-27T01:27:22;9.60;;;7.10;;
66402;SDS011;53212;52.112;5.144;2023-04-27T01:29:48;8.10;;;6.60;;
66402;SDS011;53212;52.112;5.144;2023-04-27T01:32:13;7.20;;;6.30;;
66402;SDS011;53212;52.112;5.144;2023-04-27T01:34:39;9.10;;;6.10;;
66402;SDS011;53212;52.112;5.144;2023-04-27T01:37:04;9.00;;;6.40;;
66402;SDS011;53212;52.112;5.144;2023-04-27T01:39:29;9.40;;;6.30;;
66402;SDS011;53212;52.112;5.144;2023-04-27T01:41:55;8.40;;;6.50;;
66402;SDS011;53212;52.112;5.144;2023-04-27T01:44:20;8.60;;;6.40;;
66402;SDS011;53212;52.112;5.144;2023-04-27T01:46:48;8.70;;;6.80;;
66402;SDS011;53212;52.112;5.144;2023-04-27T01:49:13;7.90;;;6.10;;
66402;SDS011;53212;52.112;5.144;2023-04-27T01:51:39;6.60;;;5.90;;
66402;SDS011;53212;52.112;5.144;2023-04-27T01:54:04;7.40;;;6.50;;
66402;SDS011;53212;52.112;5.144;2023-04-27T01:56:30;6.40;;;5.80;;
66402;SDS011;53212;52.112;5.144;2023-04-27T01:58:56;7.30;;;5.70;;
66402;SDS011;53212;52.112;5.144;2023-04-27T02:01:21;8.30;;;5.90;;
66402;SDS011;53212;52.112;5.144;2023-04-27T02:03:46;6.30;;;5.60;;
66402;SDS011;53212;52.112;5.144;2023-04-27T02:06:12;6.90;;;6.10;;
66402;SDS011;53212;52.112;5.144;2023-04-27T02:08:37;8.80;;;6.20;;
66402;SDS011;53212;52.112;5.144;2023-04-27T02:11:03;7.60;;;5.90;;
66402;SDS011;53212;52.112;5.144;2023-04-27T02:13:28;6.90;;;6.00;;
66402;SDS011;53212;52.112;5.144;2023-04-27T02:15:54;8.00;;;6.20;;
66402;SDS011;53212;52.112;5.144;2023-04-27T02:18:20;7.80;;;5.60;;
66402;SDS011;53212;52.112;5.144;2023-04-27T02:20:46;5.80;;;5.30;;
66402;SDS011;53212;52.112;5.144;2023-04-27T02:23:11;7.40;;;5.70;;
66402;SDS011;53212;52.112;5.144;2023-04-27T02:25:37;7.20;;;5.90;;
66402;SDS011;53212;52.112;5.144;2023-04-27T02:28:03;7.00;;;5.50;;
66402;SDS011;53212;52.112;5.144;2023-04-27T02:30:29;6.30;;;5.40;;
66402;SDS011;53212;52.112;5.144;2023-04-27T02:32:54;6.00;;;5.40;;
66402;SDS011;53212;52.112;5.144;2023-04-27T02:35:21;6.70;;;5.60;;
66402;SDS011;53212;52.112;5.144;2023-04-27T02:37:46;6.30;;;5.70;;
66402;SDS011;53212;52.112;5.144;2023-04-27T02:40:12;5.90;;;5.40;;
66402;SDS011;53212;52.112;5.144;2023-04-27T02:42:37;7.20;;;5.70;;
66402;SDS011;53212;52.112;5.144;2023-04-27T02:45:05;5.30;;;4.80;;
66402;SDS011;53212;52.112;5.144;2023-04-27T02:47:31;6.60;;;5.20;;
66402;SDS011;53212;52.112;5.144;2023-04-27T02:49:56;5.50;;;5.00;;
66402;SDS011;53212;52.112;5.144;2023-04-27T02:52:22;6.80;;;5.80;;
66402;SDS011;53212;52.112;5.144;2023-04-27T02:54:47;6.40;;;4.90;;
66402;SDS011;53212;52.112;5.144;2023-04-27T02:57:13;5.70;;;5.10;;
66402;SDS011;53212;52.112;5.144;2023-04-27T02:59:38;8.60;;;5.30;;
66402;SDS011;53212;52.112;5.144;2023-04-27T03:02:04;6.20;;;5.30;;
66402;SDS011;53212;52.112;5.144;2023-04-27T03:04:29;7.20;;;4.80;;
66402;SDS011;53212;52.112;5.144;2023-04-27T03:06:55;7.10;;;5.30;;
66402;SDS011;53212;52.112;5.144;2023-04-27T03:09:20;6.70;;;5.00;;
66402;SDS011;53212;52.112;5.144;2023-04-27T03:11:46;7.20;;;5.20;;
66402;SDS011;53212;52.112;5.144;2023-04-27T03:14:11;5.90;;;4.90;;
66402;SDS011;53212;52.112;5.144;2023-04-27T03:16:37;8.10;;;5.50;;
66402;SDS011;53212;52.112;5.144;2023-04-27T03:19:03;7.20;;;5.20;;
66402;SDS011;53212;52.112;5.144;2023-04-27T03:21:28;8.00;;;5.00;;
66402;SDS011;53212;52.112;5.144;2023-04-27T03:23:53;5.80;;;5.20;;
66402;SDS011;53212;52.112;5.144;2023-04-27T03:26:19;6.50;;;4.80;;
66402;SDS011;53212;52.112;5.144;2023-04-27T03:28:44;5.20;;;4.70;;
66402;SDS011;53212;52.112;5.144;2023-04-27T03:31:13;5.80;;;4.80;;
66402;SDS011;53212;52.112;5.144;2023-04-27T03:33:39;7.70;;;5.30;;
66402;SDS011;53212;52.112;5.144;2023-04-27T03:36:05;6.80;;;5.20;;
66402;SDS011;53212;52.112;5.144;2023-04-27T03:38:33;6.20;;;5.50;;
66402;SDS011;53212;52.112;5.144;2023-04-27T03:40:59;5.80;;;4.80;;
66402;SDS011;53212;52.112;5.144;2023-04-27T03:43:25;5.90;;;5.30;;
66402;SDS011;53212;52.112;5.144;2023-04-27T03:45:51;6.70;;;5.40;;
66402;SDS011;53212;52.112;5.144;2023-04-27T03:48:17;6.40;;;4.90;;
66402;SDS011;53212;52.112;5.144;2023-04-27T03:50:43;7.10;;;5.00;;
66402;SDS011;53212;52.112;5.144;2023-04-27T03:53:09;6.50;;;4.80;;
66402;SDS011;53212;52.112;5.144;2023-04-27T03:55:39;8.30;;;5.30;;
66402;SDS011;53212;52.112;5.144;2023-04-27T03:58:05;6.60;;;4.90;;
66402;SDS011;53212;52.112;5.144;2023-04-27T04:00:32;6.20;;;5.00;;
66402;SDS011;53212;52.112;5.144;2023-04-27T04:02:58;7.20;;;5.20;;
66402;SDS011;53212;52.112;5.144;2023-04-27T04:05:24;6.60;;;5.30;;
66402;SDS011;53212;52.112;5.144;2023-04-27T04:07:49;7.50;;;5.40;;
66402;SDS011;53212;52.112;5.144;2023-04-27T04:10:15;8.90;;;4.90;;
66402;SDS011;53212;52.112;5.144;2023-04-27T04:12:40;5.80;;;5.00;;
66402;SDS011;53212;52.112;5.144;2023-04-27T04:15:06;6.40;;;4.90;;
66402;SDS011;53212;52.112;5.144;2023-04-27T04:17:35;7.50;;;4.80;;
66402;SDS011;53212;52.112;5.144;2023-04-27T04:20:00;7.80;;;4.80;;
66402;SDS011;53212;52.112;5.144;2023-04-27T04:22:26;7.20;;;4.50;;
66402;SDS011;53212;52.112;5.144;2023-04-27T04:24:51;7.80;;;5.40;;
66402;SDS011;53212;52.112;5.144;2023-04-27T04:27:17;7.00;;;5.10;;
66402;SDS011;53212;52.112;5.144;2023-04-27T04:29:43;8.50;;;5.10;;
66402;SDS011;53212;52.112;5.144;2023-04-27T04:32:09;7.70;;;5.20;;
66402;SDS011;53212;52.112;5.144;2023-04-27T04:34:36;8.80;;;5.40;;
66402;SDS011;53212;52.112;5.144;2023-04-27T04:37:02;8.40;;;5.60;;
66402;SDS011;53212;52.112;5.144;2023-04-27T04:39:31;7.30;;;5.20;;
66402;SDS011;53212;52.112;5.144;2023-04-27T04:41:57;8.20;;;5.40;;
66402;SDS011;53212;52.112;5.144;2023-04-27T04:44:22;6.70;;;5.50;;
66402;SDS011;53212;52.112;5.144;2023-04-27T04:46:48;7.60;;;4.80;;
66402;SDS011;53212;52.112;5.144;2023-04-27T04:49:14;7.50;;;5.10;;
66402;SDS011;53212;52.112;5.144;2023-04-27T04:51:42;8.10;;;5.20;;
66402;SDS011;53212;52.112;5.144;2023-04-27T04:54:09;8.50;;;5.10;;
66402;SDS011;53212;52.112;5.144;2023-04-27T04:56:35;5.90;;;5.00;;
66402;SDS011;53212;52.112;5.144;2023-04-27T04:59:01;7.10;;;5.10;;
66402;SDS011;53212;52.112;5.144;2023-04-27T05:01:27;7.70;;;4.90;;
66402;SDS011;53212;52.112;5.144;2023-04-27T05:03:53;6.90;;;5.10;;
66402;SDS011;53212;52.112;5.144;2023-04-27T05:06:18;7.10;;;5.10;;
66402;SDS011;53212;52.112;5.144;2023-04-27T05:08:44;7.30;;;5.10;;
66402;SDS011;53212;52.112;5.144;2023-04-27T05:11:09;8.40;;;5.30;;
66402;SDS011;53212;52.112;5.144;2023-04-27T05:13:35;7.40;;;5.00;;
66402;SDS011;53212;52.112;5.144;2023-04-27T05:16:06;7.60;;;4.60;;
66402;SDS011;53212;52.112;5.144;2023-04-27T05:18:35;7.50;;;5.60;;
66402;SDS011;53212;52.112;5.144;2023-04-27T05:21:01;7.60;;;5.40;;
66402;SDS011;53212;52.112;5.144;2023-04-27T05:23:26;9.80;;;4.80;;
66402;SDS011;53212;52.112;5.144;2023-04-27T05:25:52;7.80;;;5.10;;
66402;SDS011;53212;52.112;5.144;2023-04-27T05:28:17;6.80;;;5.00;;
66402;SDS011;53212;52.112;5.144;2023-04-27T05:30:43;5.50;;;4.60;;
66402;SDS011;53212;52.112;5.144;2023-04-27T05:33:08;7.00;;;5.00;;
66402;SDS011;53212;52.112;5.144;2023-04-27T05:35:33;7.70;;;4.70;;
66402;SDS011;53212;52.112;5.144;2023-04-27T05:37:59;6.90;;;4.40;;
66402;SDS011;53212;52.112;5.144;2023-04-27T05:40:25;7.30;;;5.10;;
66402;SDS011;53212;52.112;5.144;2023-04-27T05:42:51;5.80;;;4.40;;
66402;SDS011;53212;52.112;5.144;2023-04-27T05:45:17;4.30;;;3.90;;
66402;SDS011;53212;52.112;5.144;2023-04-27T05:47:43;6.10;;;4.00;;
66402;SDS011;53212;52.112;5.144;2023-04-27T05:50:08;4.50;;;4.00;;
66402;SDS011;53212;52.112;5.144;2023-04-27T05:52:34;6.70;;;3.90;;
66402;SDS011;53212;52.112;5.144;2023-04-27T05:55:00;5.70;;;3.60;;
66402;SDS011;53212;52.112;5.144;2023-04-27T05:57:25;7.00;;;3.90;;
66402;SDS011;53212;52.112;5.144;2023-04-27T05:59:52;5.30;;;3.80;;
66402;SDS011;53212;52.112;5.144;2023-04-27T06:02:18;7.30;;;3.80;;
66402;SDS011;53212;52.112;5.144;2023-04-27T06:04:44;5.80;;;3.00;;
66402;SDS011;53212;52.112;5.144;2023-04-27T06:07:11;4.60;;;3.00;;
66402;SDS011;53212;52.112;5.144;2023-04-27T06:09:38;5.00;;;3.20;;
66402;SDS011;53212;52.112;5.144;2023-04-27T06:12:05;4.50;;;3.00;;
66402;SDS011;53212;52.112;5.144;2023-04-27T06:14:32;5.60;;;3.10;;
66402;SDS011;53212;52.112;5.144;2023-04-27T06:17:00;5.50;;;3.10;;
66402;SDS011;53212;52.112;5.144;2023-04-27T06:19:25;6.20;;;3.30;;
66402;SDS011;53212;52.112;5.144;2023-04-27T06:21:52;3.60;;;3.20;;
66402;SDS011;53212;52.112;5.144;2023-04-27T06:24:19;4.90;;;3.00;;
66402;SDS011;53212;52.112;5.144;2023-04-27T06:26:45;5.40;;;3.00;;
66402;SDS011;53212;52.112;5.144;2023-04-27T06:29:10;6.40;;;3.10;;
66402;SDS011;53212;52.112;5.144;2023-04-27T06:31:36;8.00;;;3.50;;
66402;SDS011;53212;52.112;5.144;2023-04-27T06:34:01;4.30;;;3.10;;
66402;SDS011;53212;52.112;5.144;2023-04-27T06:36:28;4.00;;;2.90;;
66402;SDS011;53212;52.112;5.144;2023-04-27T06:38:54;5.10;;;2.70;;
66402;SDS011;53212;52.112;5.144;2023-04-27T06:41:24;5.50;;;2.70;;
66402;SDS011;53212;52.112;5.144;2023-04-27T06:43:51;4.50;;;3.00;;
66402;SDS011;53212;52.112;5.144;2023-04-27T06:46:18;4.40;;;2.30;;
66402;SDS011;53212;52.112;5.144;2023-04-27T06:48:44;6.40;;;3.10;;
66402;SDS011;53212;52.112;5.144;2023-04-27T06:51:10;6.10;;;2.90;;
66402;SDS011;53212;52.112;5.144;2023-04-27T06:53:37;4.20;;;2.70;;
66402;SDS011;53212;52.112;5.144;2023-04-27T06:56:03;4.00;;;2.50;;
66402;SDS011;53212;52.112;5.144;2023-04-27T06:58:30;5.40;;;2.30;;
66402;SDS011;53212;52.112;5.144;2023-04-27T07:00:56;5.40;;;2.60;;
66402;SDS011;53212;52.112;5.144;2023-04-27T07:03:21;5.00;;;2.70;;
66402;SDS011;53212;52.112;5.144;2023-04-27T07:05:47;6.40;;;2.50;;
66402;SDS011;53212;52.112;5.144;2023-04-27T07:08:12;5.50;;;2.40;;
66402;SDS011;53212;52.112;5.144;2023-04-27T07:10:38;3.40;;;2.40;;
66402;SDS011;53212;52.112;5.144;2023-04-27T07:13:03;3.10;;;2.60;;
66402;SDS011;53212;52.112;5.144;2023-04-27T07:15:32;4.40;;;2.90;;
66402;SDS011;53212;52.112;5.144;2023-04-27T07:17:57;5.80;;;3.00;;
66402;SDS011;53212;52.112;5.144;2023-04-27T07:20:23;4.60;;;2.70;;
66402;SDS011;53212;52.112;5.144;2023-04-27T07:22:48;5.30;;;2.50;;
66402;SDS011;53212;52.112;5.144;2023-04-27T07:25:14;4.50;;;2.90;;
66402;SDS011;53212;52.112;5.144;2023-04-27T07:27:40;2.90;;;2.60;;
66402;SDS011;53212;52.112;5.144;2023-04-27T07:30:06;4.90;;;2.90;;
66402;SDS011;53212;52.112;5.144;2023-04-27T07:32:35;3.40;;;2.60;;
66402;SDS011;53212;52.112;5.144;2023-04-27T07:35:05;4.70;;;2.90;;
66402;SDS011;53212;52.112;5.144;2023-04-27T07:37:31;4.20;;;2.70;;
66402;SDS011;53212;52.112;5.144;2023-04-27T07:39:58;5.50;;;2.70;;
66402;SDS011;53212;52.112;5.144;2023-04-27T07:42:24;4.40;;;2.80;;
66402;SDS011;53212;52.112;5.144;2023-04-27T07:44:50;3.80;;;2.80;;
66402;SDS011;53212;52.112;5.144;2023-04-27T07:47:16;3.50;;;2.70;;
66402;SDS011;53212;52.112;5.144;2023-04-27T07:49:44;6.10;;;3.30;;
66402;SDS011;53212;52.112;5.144;2023-04-27T07:52:13;5.50;;;3.00;;
66402;SDS011;53212;52.112;5.144;2023-04-27T07:54:39;2.70;;;2.40;;
66402;SDS011;53212;52.112;5.144;2023-04-27T07:57:08;4.70;;;2.70;;
66402;SDS011;53212;52.112;5.144;2023-04-27T07:59:36;5.20;;;2.80;;
66402;SDS011;53212;52.112;5.144;2023-04-27T08:02:02;3.40;;;2.60;;
66402;SDS011;53212;52.112;5.144;2023-04-27T08:04:28;5.50;;;2.80;;
66402;SDS011;53212;52.112;5.144;2023-04-27T08:06:53;5.10;;;2.70;;
66402;SDS011;53212;52.112;5.144;2023-04-27T08:09:18;3.40;;;2.50;;
66402;SDS011;53212;52.112;5.144;2023-04-27T08:11:44;6.20;;;3.10;;
66402;SDS011;53212;52.112;5.144;2023-04-27T08:14:10;2.60;;;2.40;;
66402;SDS011;53212;52.112;5.144;2023-04-27T08:16:39;3.90;;;2.80;;
66402;SDS011;53212;52.112;5.144;2023-04-27T08:19:06;3.30;;;2.60;;
66402;SDS011;53212;52.112;5.144;2023-04-27T08:21:34;7.30;;;3.00;;
66402;SDS011;53212;52.112;5.144;2023-04-27T08:24:01;4.40;;;2.60;;
66402;SDS011;53212;52.112;5.144;2023-04-27T08:26:27;3.50;;;3.20;;
66402;SDS011;53212;52.112;5.144;2023-04-27T08:28:52;4.70;;;3.10;;
66402;SDS011;53212;52.112;5.144;2023-04-27T08:31:18;4.40;;;2.90;;
66402;SDS011;53212;52.112;5.144;2023-04-27T08:33:43;4.60;;;2.90;;
66402;SDS011;53212;52.112;5.144;2023-04-27T08:36:09;4.90;;;2.70;;
66402;SDS011;53212;52.112;5.144;2023-04-27T08:38:34;8.00;;;3.10;;
66402;SDS011;53212;52.112;5.144;2023-04-27T08:41:00;3.00;;;2.70;;
66402;SDS011;53212;52.112;5.144;2023-04-27T08:43:25;4.00;;;2.80;;
66402;SDS011;53212;52.112;5.144;2023-04-27T08:45:51;3.10;;;2.70;;
66402;SDS011;53212;52.112;5.144;2023-04-27T08:48:17;3.40;;;2.40;;
66402;SDS011;53212;52.112;5.144;2023-04-27T08:50:45;3.70;;;2.20;;
66402;SDS011;53212;52.112;5.144;2023-04-27T08:53:18;3.20;;;2.80;;
66402;SDS011;53212;52.112;5.144;2023-04-27T08:55:45;6.50;;;2.70;;
66402;SDS011;53212;52.112;5.144;2023-04-27T08:58:11;3.50;;;2.50;;
66402;SDS011;53212;52.112;5.144;2023-04-27T09:00:41;4.00;;;2.50;;
66402;SDS011;53212;52.112;5.144;2023-04-27T09:03:23;3.10;;;2.40;;
66402;SDS011;53212;52.112;5.144;2023-04-27T09:05:49;4.20;;;2.60;;
66402;SDS011;53212;52.112;5.144;2023-04-27T09:08:15;2.60;;;2.40;;
66402;SDS011;53212;52.112;5.144;2023-04-27T09:10:50;2.90;;;2.30;;
66402;SDS011;53212;52.112;5.144;2023-04-27T09:13:16;4.10;;;2.50;;
66402;SDS011;53212;52.112;5.144;2023-04-27T09:15:45;6.50;;;2.80;;
66402;SDS011;53212;52.112;5.144;2023-04-27T09:18:22;2.80;;;2.20;;
66402;SDS011;53212;52.112;5.144;2023-04-27T09:20:49;3.90;;;2.30;;
66402;SDS011;53212;52.112;5.144;2023-04-27T09:23:25;2.40;;;2.20;;
66402;SDS011;53212;52.112;5.144;2023-04-27T09:25:52;2.60;;;2.40;;
66402;SDS011;53212;52.112;5.144;2023-04-27T09:28:20;3.10;;;2.20;;
66402;SDS011;53212;52.112;5.144;2023-04-27T09:30:54;4.00;;;2.50;;
66402;SDS011;53212;52.112;5.144;2023-04-27T09:33:25;3.10;;;2.30;;
66402;SDS011;53212;52.112;5.144;2023-04-27T09:35:52;4.70;;;2.70;;
66402;SDS011;53212;52.112;5.144;2023-04-27T09:38:19;5.00;;;2.50;;
66402;SDS011;53212;52.112;5.144;2023-04-27T09:40:46;4.60;;;2.30;;
66402;SDS011;53212;52.112;5.144;2023-04-27T09:43:12;4.90;;;2.70;;
66402;SDS011;53212;52.112;5.144;2023-04-27T09:45:38;4.90;;;2.30;;
66402;SDS011;53212;52.112;5.144;2023-04-27T09:48:05;4.00;;;2.40;;
66402;SDS011;53212;52.112;5.144;2023-04-27T09:50:38;2.80;;;2.50;;
66402;SDS011;53212;52.112;5.144;2023-04-27T09:53:27;2.60;;;2.40;;
66402;SDS011;53212;52.112;5.144;2023-04-27T10:02:10;3.10;;;2.40;;
66402;SDS011;53212;52.112;5.144;2023-04-27T10:05:23;2.70;;;2.20;;
66402;SDS011;53212;52.112;5.144;2023-04-27T10:08:00;3.70;;;2.60;;
66402;SDS011;53212;52.112;5.144;2023-04-27T10:10:27;2.00;;;1.80;;
66402;SDS011;53212;52.112;5.144;2023-04-27T10:13:19;4.60;;;2.30;;
66402;SDS011;53212;52.112;5.144;2023-04-27T10:15:47;2.80;;;2.20;;
66402;SDS011;53212;52.112;5.144;2023-04-27T10:18:12;3.50;;;2.30;;
66402;SDS011;53212;52.112;5.144;2023-04-27T10:20:48;5.10;;;2.50;;
66402;SDS011;53212;52.112;5.144;2023-04-27T10:23:26;4.30;;;2.70;;
66402;SDS011;53212;52.112;5.144;2023-04-27T10:25:53;3.20;;;2.50;;
66402;SDS011;53212;52.112;5.144;2023-04-27T10:28:19;2.50;;;2.30;;
66402;SDS011;53212;52.112;5.144;2023-04-27T10:30:47;3.20;;;2.30;;
66402;SDS011;53212;52.112;5.144;2023-04-27T10:33:18;3.60;;;2.60;;
66402;SDS011;53212;52.112;5.144;2023-04-27T10:35:56;4.50;;;2.70;;
66402;SDS011;53212;52.112;5.144;2023-04-27T10:38:29;2.20;;;2.00;;
66402;SDS011;53212;52.112;5.144;2023-04-27T10:41:04;3.90;;;2.50;;
66402;SDS011;53212;52.112;5.144;2023-04-27T10:43:32;3.90;;;2.50;;
66402;SDS011;53212;52.112;5.144;2023-04-27T10:46:12;3.30;;;2.50;;
66402;SDS011;53212;52.112;5.144;2023-04-27T10:48:39;3.10;;;2.70;;
66402;SDS011;53212;52.112;5.144;2023-04-27T10:51:06;3.50;;;2.40;;
66402;SDS011;53212;52.112;5.144;2023-04-27T10:53:35;5.70;;;2.90;;
66402;SDS011;53212;52.112;5.144;2023-04-27T10:56:02;3.10;;;2.70;;
66402;SDS011;53212;52.112;5.144;2023-04-27T10:58:31;3.90;;;2.70;;
66402;SDS011;53212;52.112;5.144;2023-04-27T11:00:57;3.80;;;2.40;;
66402;SDS011;53212;52.112;5.144;2023-04-27T11:03:23;3.50;;;2.30;;
66402;SDS011;53212;52.112;5.144;2023-04-27T11:06:01;3.60;;;2.90;;
66402;SDS011;53212;52.112;5.144;2023-04-27T11:08:28;3.30;;;2.10;;
66402;SDS011;53212;52.112;5.144;2023-04-27T11:10:54;4.20;;;2.90;;
66402;SDS011;53212;52.112;5.144;2023-04-27T11:13:22;4.10;;;2.90;;
66402;SDS011;53212;52.112;5.144;2023-04-27T11:15:50;3.70;;;3.00;;
66402;SDS011;53212;52.112;5.144;2023-04-27T11:18:21;3.70;;;2.70;;
66402;SDS011;53212;52.112;5.144;2023-04-27T11:20:50;3.20;;;2.90;;
66402;SDS011;53212;52.112;5.144;2023-04-27T11:23:24;4.40;;;3.30;;
66402;SDS011;53212;52.112;5.144;2023-04-27T11:25:51;4.40;;;3.30;;
66402;SDS011;53212;52.112;5.144;2023-04-27T11:28:18;6.70;;;3.20;;
66402;SDS011;53212;52.112;5.144;2023-04-27T11:30:44;4.40;;;3.10;;
66402;SDS011;53212;52.112;5.144;2023-04-27T11:33:09;5.50;;;3.30;;
66402;SDS011;53212;52.112;5.144;2023-04-27T11:35:35;3.50;;;3.00;;
66402;SDS011;53212;52.112;5.144;2023-04-27T11:38:00;3.50;;;3.10;;
66402;SDS011;53212;52.112;5.144;2023-04-27T11:40:27;3.80;;;2.90;;
66402;SDS011;53212;52.112;5.144;2023-04-27T11:42:59;4.00;;;2.70;;
66402;SDS011;53212;52.112;5.144;2023-04-27T11:45:28;4.30;;;3.00;;
66402;SDS011;53212;52.112;5.144;2023-04-27T11:47:57;4.10;;;2.80;;
66402;SDS011;53212;52.112;5.144;2023-04-27T11:50:24;4.40;;;2.90;;
66402;SDS011;53212;52.112;5.144;2023-04-27T11:52:51;4.70;;;3.20;;
66402;SDS011;53212;52.112;5.144;2023-04-27T11:55:19;5.10;;;3.20;;
66402;SDS011;53212;52.112;5.144;2023-04-27T11:57:45;4.90;;;2.90;;
66402;SDS011;53212;52.112;5.144;2023-04-27T12:00:11;4.70;;;3.10;;
66402;SDS011;53212;52.112;5.144;2023-04-27T12:02:39;3.20;;;2.90;;
66402;SDS011;53212;52.112;5.144;2023-04-27T12:05:06;3.00;;;2.70;;
66402;SDS011;53212;52.112;5.144;2023-04-27T12:07:33;3.90;;;2.90;;
66402;SDS011;53212;52.112;5.144;2023-04-27T12:10:00;4.20;;;3.00;;
66402;SDS011;53212;52.112;5.144;2023-04-27T12:12:25;3.40;;;3.10;;
66402;SDS011;53212;52.112;5.144;2023-04-27T12:14:51;3.20;;;2.90;;
66402;SDS011;53212;52.112;5.144;2023-04-27T12:17:17;7.00;;;3.40;;
66402;SDS011;53212;52.112;5.144;2023-04-27T12:19:43;3.40;;;3.10;;
66402;SDS011;53212;52.112;5.144;2023-04-27T12:22:08;3.80;;;3.10;;
66402;SDS011;53212;52.112;5.144;2023-04-27T12:24:34;3.40;;;3.00;;
66402;SDS011;53212;52.112;5.144;2023-04-27T12:27:01;3.30;;;2.80;;
66402;SDS011;53212;52.112;5.144;2023-04-27T12:29:28;6.10;;;3.00;;
66402;SDS011;53212;52.112;5.144;2023-04-27T12:31:54;3.30;;;3.00;;
66402;SDS011;53212;52.112;5.144;2023-04-27T12:34:19;5.60;;;3.30;;
66402;SDS011;53212;52.112;5.144;2023-04-27T12:36:45;4.50;;;3.00;;
66402;SDS011;53212;52.112;5.144;2023-04-27T12:39:16;4.30;;;3.10;;
66402;SDS011;53212;52.112;5.144;2023-04-27T12:41:47;3.50;;;3.20;;
66402;SDS011;53212;52.112;5.144;2023-04-27T12:44:14;4.30;;;3.20;;
66402;SDS011;53212;52.112;5.144;2023-04-27T12:46:41;3.00;;;2.70;;
66402;SDS011;53212;52.112;5.144;2023-04-27T12:49:08;3.40;;;3.00;;
66402;SDS011;53212;52.112;5.144;2023-04-27T12:51:35;4.30;;;3.40;;
66402;SDS011;53212;52.112;5.144;2023-04-27T12:54:02;3.90;;;3.00;;
66402;SDS011;53212;52.112;5.144;2023-04-27T12:56:28;3.30;;;3.00;;
66402;SDS011;53212;52.112;5.144;2023-04-27T12:58:55;5.10;;;3.30;;
66402;SDS011;53212;52.112;5.144;2023-04-27T13:01:21;4.10;;;3.10;;
66402;SDS011;53212;52.112;5.144;2023-04-27T13:06:21;4.40;;;3.80;;
66402;SDS011;53212;52.112;5.144;2023-04-27T13:08:47;5.20;;;2.90;;
66402;SDS011;53212;52.112;5.144;2023-04-27T13:11:13;3.30;;;3.00;;
66402;SDS011;53212;52.112;5.144;2023-04-27T13:13:39;3.50;;;3.20;;
66402;SDS011;53212;52.112;5.144;2023-04-27T13:16:05;3.90;;;3.40;;
66402;SDS011;53212;52.112;5.144;2023-04-27T13:18:31;4.30;;;3.60;;
66402;SDS011;53212;52.112;5.144;2023-04-27T13:20:56;4.80;;;3.70;;
66402;SDS011;53212;52.112;5.144;2023-04-27T13:23:22;4.00;;;2.80;;
66402;SDS011;53212;52.112;5.144;2023-04-27T13:25:47;4.00;;;3.20;;
66402;SDS011;53212;52.112;5.144;2023-04-27T13:28:14;3.80;;;3.20;;
66402;SDS011;53212;52.112;5.144;2023-04-27T13:30:40;3.80;;;2.80;;
66402;SDS011;53212;52.112;5.144;2023-04-27T13:33:05;4.00;;;3.40;;
66402;SDS011;53212;52.112;5.144;2023-04-27T13:35:31;4.30;;;2.80;;
66402;SDS011;53212;52.112;5.144;2023-04-27T13:37:56;4.80;;;3.40;;
66402;SDS011;53212;52.112;5.144;2023-04-27T13:40:21;4.20;;;3.50;;
66402;SDS011;53212;52.112;5.144;2023-04-27T13:42:47;5.00;;;3.10;;
66402;SDS011;53212;52.112;5.144;2023-04-27T13:45:13;4.20;;;3.50;;
66402;SDS011;53212;52.112;5.144;2023-04-27T13:47:39;4.80;;;3.40;;
66402;SDS011;53212;52.112;5.144;2023-04-27T13:50:07;4.40;;;3.00;;
66402;SDS011;53212;52.112;5.144;2023-04-27T13:52:35;3.10;;;2.70;;
66402;SDS011;53212;52.112;5.144;2023-04-27T13:55:06;3.90;;;2.90;;
66402;SDS011;53212;52.112;5.144;2023-04-27T13:57:33;4.40;;;3.50;;
66402;SDS011;53212;52.112;5.144;2023-04-27T13:59:59;6.30;;;3.30;;
66402;SDS011;53212;52.112;5.144;2023-04-27T14:02:27;4.10;;;2.80;;
66402;SDS011;53212;52.112;5.144;2023-04-27T14:04:54;3.40;;;3.10;;
66402;SDS011;53212;52.112;5.144;2023-04-27T14:07:20;4.80;;;3.70;;
66402;SDS011;53212;52.112;5.144;2023-04-27T14:09:45;5.50;;;3.60;;
66402;SDS011;53212;52.112;5.144;2023-04-27T14:12:11;5.20;;;3.40;;
66402;SDS011;53212;52.112;5.144;2023-04-27T14:14:37;3.30;;;3.00;;
66402;SDS011;53212;52.112;5.144;2023-04-27T14:17:03;4.30;;;3.40;;
66402;SDS011;53212;52.112;5.144;2023-04-27T14:19:30;3.30;;;3.00;;
66402;SDS011;53212;52.112;5.144;2023-04-27T14:21:56;7.20;;;3.50;;
66402;SDS011;53212;52.112;5.144;2023-04-27T14:24:22;4.20;;;3.30;;
66402;SDS011;53212;52.112;5.144;2023-04-27T14:26:48;5.40;;;3.30;;
66402;SDS011;53212;52.112;5.144;2023-04-27T14:29:18;4.50;;;3.40;;
66402;SDS011;53212;52.112;5.144;2023-04-27T14:31:44;4.70;;;3.70;;
66402;SDS011;53212;52.112;5.144;2023-04-27T14:34:10;3.70;;;3.10;;
66402;SDS011;53212;52.112;5.144;2023-04-27T14:36:36;4.20;;;3.40;;
66402;SDS011;53212;52.112;5.144;2023-04-27T14:39:02;3.90;;;3.30;;
66402;SDS011;53212;52.112;5.144;2023-04-27T14:41:29;4.60;;;3.20;;
66402;SDS011;53212;52.112;5.144;2023-04-27T14:43:54;5.40;;;3.40;;
66402;SDS011;53212;52.112;5.144;2023-04-27T14:46:20;3.70;;;3.40;;
66402;SDS011;53212;52.112;5.144;2023-04-27T14:48:46;3.10;;;2.90;;
66402;SDS011;53212;52.112;5.144;2023-04-27T14:51:12;3.70;;;3.20;;
66402;SDS011;53212;52.112;5.144;2023-04-27T14:53:38;3.30;;;3.00;;
66402;SDS011;53212;52.112;5.144;2023-04-27T14:56:04;4.00;;;3.50;;